sensor_id;sensor_type;location;lat;lon;timestamp;P1;durP1;ratioP1;P2;durP2;ratioP2
66667;SDS011;57205;51.438;-2.006;2023-11-19T00:02:18;24.83;;;5.45;;
66667;SDS011;57205;51.438;-2.006;2023-11-19T00:04:44;19.42;;;4.70;;
66667;SDS011;57205;51.438;-2.006;2023-11-19T00:07:09;20.25;;;4.85;;
66667;SDS011;57205;51.438;-2.006;2023-11-19T00:09:37;23.45;;;3.92;;
66667;SDS011;57205;51.438;-2.006;2023-11-19T00:12:03;15.38;;;4.03;;
66667;SDS011;57205;51.438;-2.006;2023-11-19T00:14:29;25.35;;;4.35;;
66667;SDS011;57205;51.438;-2.006;2023-11-19T00:16:55;23.98;;;4.53;;
66667;SDS011;57205;51.438;-2.006;2023-11-19T00:19:21;20.30;;;3.97;;
66667;SDS011;57205;51.438;-2.006;2023-11-19T00:21:46;17.65;;;4.22;;
66667;SDS011;57205;51.438;-2.006;2023-11-19T00:24:12;21.67;;;4.57;;
66667;SDS011;57205;51.438;-2.006;2023-11-19T00:26:38;19.95;;;4.00;;
66667;SDS011;57205;51.438;-2.006;2023-11-19T00:29:04;22.02;;;4.65;;
66667;SDS011;57205;51.438;-2.006;2023-11-19T00:31:29;20.45;;;4.32;;
66667;SDS011;57205;51.438;-2.006;2023-11-19T00:33:55;15.35;;;3.60;;
66667;SDS011;57205;51.438;-2.006;2023-11-19T00:36:20;22.33;;;4.65;;
66667;SDS011;57205;51.438;-2.006;2023-11-19T00:38:46;25.05;;;4.57;;
66667;SDS011;57205;51.438;-2.006;2023-11-19T00:41:11;14.88;;;4.18;;
66667;SDS011;57205;51.438;-2.006;2023-11-19T00:43:37;22.55;;;5.10;;
66667;SDS011;57205;51.438;-2.006;2023-11-19T00:46:03;18.60;;;4.07;;
66667;SDS011;57205;51.438;-2.006;2023-11-19T00:48:32;22.00;;;4.70;;
66667;SDS011;57205;51.438;-2.006;2023-11-19T00:50:57;24.35;;;5.07;;
66667;SDS011;57205;51.438;-2.006;2023-11-19T00:53:23;23.30;;;4.68;;
66667;SDS011;57205;51.438;-2.006;2023-11-19T00:55:48;16.00;;;4.07;;
66667;SDS011;57205;51.438;-2.006;2023-11-19T00:58:14;19.70;;;4.60;;
66667;SDS011;57205;51.438;-2.006;2023-11-19T01:00:39;18.00;;;5.80;;
66667;SDS011;57205;51.438;-2.006;2023-11-19T01:03:05;20.02;;;4.28;;
66667;SDS011;57205;51.438;-2.006;2023-11-19T01:05:32;15.38;;;4.13;;
66667;SDS011;57205;51.438;-2.006;2023-11-19T01:07:57;14.32;;;3.55;;
66667;SDS011;57205;51.438;-2.006;2023-11-19T01:10:23;19.35;;;3.70;;
66667;SDS011;57205;51.438;-2.006;2023-11-19T01:12:49;17.05;;;4.47;;
66667;SDS011;57205;51.438;-2.006;2023-11-19T01:15:14;25.27;;;4.60;;
66667;SDS011;57205;51.438;-2.006;2023-11-19T01:17:40;23.77;;;4.10;;
66667;SDS011;57205;51.438;-2.006;2023-11-19T01:20:05;18.42;;;3.70;;
66667;SDS011;57205;51.438;-2.006;2023-11-19T01:22:31;25.42;;;4.30;;
66667;SDS011;57205;51.438;-2.006;2023-11-19T01:24:57;21.05;;;4.20;;
66667;SDS011;57205;51.438;-2.006;2023-11-19T01:27:23;20.73;;;4.38;;
66667;SDS011;57205;51.438;-2.006;2023-11-19T01:29:49;18.85;;;4.22;;
66667;SDS011;57205;51.438;-2.006;2023-11-19T01:32:15;24.35;;;4.78;;
66667;SDS011;57205;51.438;-2.006;2023-11-19T01:34:41;21.48;;;4.72;;
66667;SDS011;57205;51.438;-2.006;2023-11-19T01:37:06;18.48;;;3.97;;
66667;SDS011;57205;51.438;-2.006;2023-11-19T01:39:34;19.55;;;4.75;;
66667;SDS011;57205;51.438;-2.006;2023-11-19T01:41:59;17.85;;;3.90;;
66667;SDS011;57205;51.438;-2.006;2023-11-19T01:44:25;15.73;;;4.40;;
66667;SDS011;57205;51.438;-2.006;2023-11-19T01:46:50;20.05;;;3.78;;
66667;SDS011;57205;51.438;-2.006;2023-11-19T01:49:18;21.77;;;5.35;;
66667;SDS011;57205;51.438;-2.006;2023-11-19T01:51:44;20.58;;;4.30;;
66667;SDS011;57205;51.438;-2.006;2023-11-19T01:54:11;15.63;;;3.90;;
66667;SDS011;57205;51.438;-2.006;2023-11-19T01:56:38;17.90;;;3.53;;
66667;SDS011;57205;51.438;-2.006;2023-11-19T01:59:05;17.17;;;3.83;;
66667;SDS011;57205;51.438;-2.006;2023-11-19T02:01:32;23.35;;;4.80;;
66667;SDS011;57205;51.438;-2.006;2023-11-19T02:04:03;19.65;;;4.03;;
66667;SDS011;57205;51.438;-2.006;2023-11-19T02:06:29;21.90;;;4.05;;
66667;SDS011;57205;51.438;-2.006;2023-11-19T02:08:57;19.40;;;4.18;;
66667;SDS011;57205;51.438;-2.006;2023-11-19T02:11:22;18.17;;;3.75;;
66667;SDS011;57205;51.438;-2.006;2023-11-19T02:13:49;14.75;;;3.92;;
66667;SDS011;57205;51.438;-2.006;2023-11-19T02:16:14;20.90;;;4.40;;
66667;SDS011;57205;51.438;-2.006;2023-11-19T02:18:40;22.90;;;4.03;;
66667;SDS011;57205;51.438;-2.006;2023-11-19T02:21:05;19.98;;;4.15;;
66667;SDS011;57205;51.438;-2.006;2023-11-19T02:23:31;16.58;;;4.18;;
66667;SDS011;57205;51.438;-2.006;2023-11-19T02:25:59;18.45;;;3.85;;
66667;SDS011;57205;51.438;-2.006;2023-11-19T02:28:25;27.50;;;4.60;;
66667;SDS011;57205;51.438;-2.006;2023-11-19T02:30:51;14.25;;;3.28;;
66667;SDS011;57205;51.438;-2.006;2023-11-19T02:33:16;20.85;;;4.45;;
66667;SDS011;57205;51.438;-2.006;2023-11-19T02:35:42;20.15;;;3.42;;
66667;SDS011;57205;51.438;-2.006;2023-11-19T02:38:07;18.35;;;3.75;;
66667;SDS011;57205;51.438;-2.006;2023-11-19T02:40:33;17.83;;;3.70;;
66667;SDS011;57205;51.438;-2.006;2023-11-19T02:42:58;16.80;;;3.95;;
66667;SDS011;57205;51.438;-2.006;2023-11-19T02:45:24;12.07;;;3.28;;
66667;SDS011;57205;51.438;-2.006;2023-11-19T02:47:51;18.13;;;3.80;;
66667;SDS011;57205;51.438;-2.006;2023-11-19T02:50:17;24.90;;;4.50;;
66667;SDS011;57205;51.438;-2.006;2023-11-19T02:52:56;18.95;;;3.60;;
66667;SDS011;57205;51.438;-2.006;2023-11-19T02:55:21;15.77;;;3.55;;
66667;SDS011;57205;51.438;-2.006;2023-11-19T02:57:48;17.25;;;4.20;;
66667;SDS011;57205;51.438;-2.006;2023-11-19T03:02:48;15.30;;;3.33;;
66667;SDS011;57205;51.438;-2.006;2023-11-19T03:05:23;16.85;;;3.30;;
66667;SDS011;57205;51.438;-2.006;2023-11-19T03:07:50;19.92;;;4.15;;
66667;SDS011;57205;51.438;-2.006;2023-11-19T03:10:16;22.90;;;4.60;;
66667;SDS011;57205;51.438;-2.006;2023-11-19T03:12:42;13.23;;;3.30;;
66667;SDS011;57205;51.438;-2.006;2023-11-19T03:15:09;17.38;;;4.00;;
66667;SDS011;57205;51.438;-2.006;2023-11-19T03:17:35;22.13;;;3.30;;
66667;SDS011;57205;51.438;-2.006;2023-11-19T03:20:04;25.23;;;3.97;;
66667;SDS011;57205;51.438;-2.006;2023-11-19T03:22:32;17.30;;;3.85;;
66667;SDS011;57205;51.438;-2.006;2023-11-19T03:24:59;17.08;;;3.53;;
66667;SDS011;57205;51.438;-2.006;2023-11-19T03:27:25;20.40;;;3.42;;
66667;SDS011;57205;51.438;-2.006;2023-11-19T03:29:50;10.95;;;3.30;;
66667;SDS011;57205;51.438;-2.006;2023-11-19T03:32:16;19.23;;;3.83;;
66667;SDS011;57205;51.438;-2.006;2023-11-19T03:34:41;19.45;;;3.92;;
66667;SDS011;57205;51.438;-2.006;2023-11-19T03:37:07;13.13;;;3.28;;
66667;SDS011;57205;51.438;-2.006;2023-11-19T03:39:32;18.98;;;3.13;;
66667;SDS011;57205;51.438;-2.006;2023-11-19T03:41:58;17.55;;;3.65;;
66667;SDS011;57205;51.438;-2.006;2023-11-19T03:44:23;28.85;;;4.68;;
66667;SDS011;57205;51.438;-2.006;2023-11-19T03:46:52;14.95;;;3.33;;
66667;SDS011;57205;51.438;-2.006;2023-11-19T03:49:17;14.32;;;4.35;;
66667;SDS011;57205;51.438;-2.006;2023-11-19T03:51:43;14.05;;;3.42;;
66667;SDS011;57205;51.438;-2.006;2023-11-19T03:54:08;18.65;;;4.45;;
66667;SDS011;57205;51.438;-2.006;2023-11-19T03:56:33;17.05;;;3.50;;
66667;SDS011;57205;51.438;-2.006;2023-11-19T03:58:59;17.30;;;3.30;;
66667;SDS011;57205;51.438;-2.006;2023-11-19T04:01:24;9.93;;;3.60;;
66667;SDS011;57205;51.438;-2.006;2023-11-19T04:03:50;15.93;;;3.95;;
66667;SDS011;57205;51.438;-2.006;2023-11-19T04:06:15;16.77;;;3.33;;
66667;SDS011;57205;51.438;-2.006;2023-11-19T04:08:41;28.98;;;3.35;;
66667;SDS011;57205;51.438;-2.006;2023-11-19T04:11:06;15.90;;;3.40;;
66667;SDS011;57205;51.438;-2.006;2023-11-19T04:13:33;14.57;;;3.25;;
66667;SDS011;57205;51.438;-2.006;2023-11-19T04:15:59;17.30;;;3.40;;
66667;SDS011;57205;51.438;-2.006;2023-11-19T04:18:25;14.95;;;3.22;;
66667;SDS011;57205;51.438;-2.006;2023-11-19T04:20:50;18.60;;;4.15;;
66667;SDS011;57205;51.438;-2.006;2023-11-19T04:23:16;14.98;;;3.38;;
66667;SDS011;57205;51.438;-2.006;2023-11-19T04:25:41;19.05;;;4.30;;
66667;SDS011;57205;51.438;-2.006;2023-11-19T04:28:07;20.50;;;3.05;;
66667;SDS011;57205;51.438;-2.006;2023-11-19T04:30:33;19.38;;;2.72;;
66667;SDS011;57205;51.438;-2.006;2023-11-19T04:32:59;14.65;;;2.90;;
66667;SDS011;57205;51.438;-2.006;2023-11-19T04:35:24;14.05;;;3.30;;
66667;SDS011;57205;51.438;-2.006;2023-11-19T04:37:51;15.90;;;2.55;;
66667;SDS011;57205;51.438;-2.006;2023-11-19T04:40:16;14.40;;;3.28;;
66667;SDS011;57205;51.438;-2.006;2023-11-19T04:42:43;11.73;;;2.58;;
66667;SDS011;57205;51.438;-2.006;2023-11-19T04:45:09;10.70;;;2.55;;
66667;SDS011;57205;51.438;-2.006;2023-11-19T04:47:38;11.10;;;2.92;;
66667;SDS011;57205;51.438;-2.006;2023-11-19T04:50:04;13.80;;;2.75;;
66667;SDS011;57205;51.438;-2.006;2023-11-19T04:52:30;8.82;;;2.97;;
66667;SDS011;57205;51.438;-2.006;2023-11-19T04:54:55;13.48;;;3.47;;
66667;SDS011;57205;51.438;-2.006;2023-11-19T04:57:21;15.65;;;3.08;;
66667;SDS011;57205;51.438;-2.006;2023-11-19T04:59:46;17.33;;;3.75;;
66667;SDS011;57205;51.438;-2.006;2023-11-19T05:02:12;16.27;;;3.53;;
66667;SDS011;57205;51.438;-2.006;2023-11-19T05:04:41;16.90;;;3.15;;
66667;SDS011;57205;51.438;-2.006;2023-11-19T05:07:09;14.85;;;3.40;;
66667;SDS011;57205;51.438;-2.006;2023-11-19T05:09:34;20.48;;;3.45;;
66667;SDS011;57205;51.438;-2.006;2023-11-19T05:12:00;18.73;;;3.28;;
66667;SDS011;57205;51.438;-2.006;2023-11-19T05:14:27;13.98;;;3.55;;
66667;SDS011;57205;51.438;-2.006;2023-11-19T05:16:53;19.30;;;3.30;;
66667;SDS011;57205;51.438;-2.006;2023-11-19T05:19:18;18.63;;;3.38;;
66667;SDS011;57205;51.438;-2.006;2023-11-19T05:21:43;11.98;;;2.47;;
66667;SDS011;57205;51.438;-2.006;2023-11-19T05:24:09;26.45;;;3.28;;
66667;SDS011;57205;51.438;-2.006;2023-11-19T05:26:35;14.85;;;3.25;;
66667;SDS011;57205;51.438;-2.006;2023-11-19T05:29:00;15.40;;;3.15;;
66667;SDS011;57205;51.438;-2.006;2023-11-19T05:31:26;19.02;;;4.68;;
66667;SDS011;57205;51.438;-2.006;2023-11-19T05:33:51;15.68;;;2.47;;
66667;SDS011;57205;51.438;-2.006;2023-11-19T05:36:17;12.73;;;2.65;;
66667;SDS011;57205;51.438;-2.006;2023-11-19T05:38:42;14.75;;;3.10;;
66667;SDS011;57205;51.438;-2.006;2023-11-19T05:41:09;17.13;;;3.22;;
66667;SDS011;57205;51.438;-2.006;2023-11-19T05:43:35;15.45;;;3.80;;
66667;SDS011;57205;51.438;-2.006;2023-11-19T05:46:00;12.40;;;3.17;;
66667;SDS011;57205;51.438;-2.006;2023-11-19T05:48:26;23.73;;;3.92;;
66667;SDS011;57205;51.438;-2.006;2023-11-19T05:50:52;14.57;;;3.40;;
66667;SDS011;57205;51.438;-2.006;2023-11-19T05:53:18;23.98;;;3.88;;
66667;SDS011;57205;51.438;-2.006;2023-11-19T05:55:44;14.65;;;3.10;;
66667;SDS011;57205;51.438;-2.006;2023-11-19T05:58:27;20.15;;;4.25;;
66667;SDS011;57205;51.438;-2.006;2023-11-19T06:00:57;20.65;;;3.90;;
66667;SDS011;57205;51.438;-2.006;2023-11-19T06:03:22;13.32;;;2.92;;
66667;SDS011;57205;51.438;-2.006;2023-11-19T06:05:48;22.23;;;2.95;;
66667;SDS011;57205;51.438;-2.006;2023-11-19T06:08:14;11.80;;;3.25;;
66667;SDS011;57205;51.438;-2.006;2023-11-19T06:10:41;12.68;;;3.42;;
66667;SDS011;57205;51.438;-2.006;2023-11-19T06:13:07;15.10;;;3.20;;
66667;SDS011;57205;51.438;-2.006;2023-11-19T06:15:35;21.75;;;3.55;;
66667;SDS011;57205;51.438;-2.006;2023-11-19T06:18:01;18.23;;;3.50;;
66667;SDS011;57205;51.438;-2.006;2023-11-19T06:20:28;15.25;;;3.45;;
66667;SDS011;57205;51.438;-2.006;2023-11-19T06:22:57;13.32;;;3.03;;
66667;SDS011;57205;51.438;-2.006;2023-11-19T06:25:23;15.48;;;3.83;;
66667;SDS011;57205;51.438;-2.006;2023-11-19T06:27:52;17.13;;;2.92;;
66667;SDS011;57205;51.438;-2.006;2023-11-19T06:30:17;22.27;;;3.42;;
66667;SDS011;57205;51.438;-2.006;2023-11-19T06:32:43;15.32;;;3.60;;
66667;SDS011;57205;51.438;-2.006;2023-11-19T06:35:09;15.23;;;3.13;;
66667;SDS011;57205;51.438;-2.006;2023-11-19T06:37:35;13.85;;;3.40;;
66667;SDS011;57205;51.438;-2.006;2023-11-19T06:40:01;15.77;;;3.72;;
66667;SDS011;57205;51.438;-2.006;2023-11-19T06:42:26;15.65;;;3.97;;
66667;SDS011;57205;51.438;-2.006;2023-11-19T06:44:54;20.80;;;2.92;;
66667;SDS011;57205;51.438;-2.006;2023-11-19T06:47:22;14.23;;;2.85;;
66667;SDS011;57205;51.438;-2.006;2023-11-19T06:49:47;18.40;;;2.67;;
66667;SDS011;57205;51.438;-2.006;2023-11-19T06:52:13;14.98;;;3.45;;
66667;SDS011;57205;51.438;-2.006;2023-11-19T06:54:39;15.07;;;3.53;;
66667;SDS011;57205;51.438;-2.006;2023-11-19T06:57:04;11.43;;;2.60;;
66667;SDS011;57205;51.438;-2.006;2023-11-19T06:59:30;13.30;;;2.95;;
66667;SDS011;57205;51.438;-2.006;2023-11-19T07:01:56;19.10;;;3.75;;
66667;SDS011;57205;51.438;-2.006;2023-11-19T07:04:21;9.60;;;2.55;;
66667;SDS011;57205;51.438;-2.006;2023-11-19T07:06:47;10.75;;;2.42;;
66667;SDS011;57205;51.438;-2.006;2023-11-19T07:09:13;10.85;;;2.78;;
66667;SDS011;57205;51.438;-2.006;2023-11-19T07:11:39;10.27;;;2.15;;
66667;SDS011;57205;51.438;-2.006;2023-11-19T07:14:06;13.75;;;3.20;;
66667;SDS011;57205;51.438;-2.006;2023-11-19T07:16:33;11.52;;;2.95;;
66667;SDS011;57205;51.438;-2.006;2023-11-19T07:18:59;19.05;;;2.92;;
66667;SDS011;57205;51.438;-2.006;2023-11-19T07:21:28;17.35;;;3.17;;
66667;SDS011;57205;51.438;-2.006;2023-11-19T07:23:54;15.98;;;3.90;;
66667;SDS011;57205;51.438;-2.006;2023-11-19T07:26:22;12.40;;;2.75;;
66667;SDS011;57205;51.438;-2.006;2023-11-19T07:28:48;11.38;;;2.83;;
66667;SDS011;57205;51.438;-2.006;2023-11-19T07:31:17;17.55;;;2.88;;
66667;SDS011;57205;51.438;-2.006;2023-11-19T07:33:44;12.65;;;3.10;;
66667;SDS011;57205;51.438;-2.006;2023-11-19T07:36:11;12.27;;;3.08;;
66667;SDS011;57205;51.438;-2.006;2023-11-19T07:38:37;14.13;;;3.47;;
66667;SDS011;57205;51.438;-2.006;2023-11-19T07:41:03;10.32;;;2.97;;
66667;SDS011;57205;51.438;-2.006;2023-11-19T07:43:30;17.80;;;3.50;;
66667;SDS011;57205;51.438;-2.006;2023-11-19T07:45:56;13.20;;;3.20;;
66667;SDS011;57205;51.438;-2.006;2023-11-19T07:48:24;15.38;;;2.53;;
66667;SDS011;57205;51.438;-2.006;2023-11-19T07:50:49;17.60;;;3.80;;
66667;SDS011;57205;51.438;-2.006;2023-11-19T07:53:18;17.17;;;2.97;;
66667;SDS011;57205;51.438;-2.006;2023-11-19T07:55:44;12.82;;;3.22;;
66667;SDS011;57205;51.438;-2.006;2023-11-19T07:58:10;14.15;;;2.85;;
66667;SDS011;57205;51.438;-2.006;2023-11-19T08:00:36;12.73;;;3.40;;
66667;SDS011;57205;51.438;-2.006;2023-11-19T08:03:02;15.70;;;3.22;;
66667;SDS011;57205;51.438;-2.006;2023-11-19T08:05:29;9.02;;;2.30;;
66667;SDS011;57205;51.438;-2.006;2023-11-19T08:07:54;14.30;;;2.85;;
66667;SDS011;57205;51.438;-2.006;2023-11-19T08:10:21;12.30;;;2.53;;
66667;SDS011;57205;51.438;-2.006;2023-11-19T08:12:49;13.75;;;2.95;;
66667;SDS011;57205;51.438;-2.006;2023-11-19T08:15:14;16.80;;;3.38;;
66667;SDS011;57205;51.438;-2.006;2023-11-19T08:17:41;15.23;;;3.08;;
66667;SDS011;57205;51.438;-2.006;2023-11-19T08:20:08;11.80;;;2.83;;
66667;SDS011;57205;51.438;-2.006;2023-11-19T08:22:37;13.40;;;2.97;;
66667;SDS011;57205;51.438;-2.006;2023-11-19T08:25:04;9.25;;;2.50;;
66667;SDS011;57205;51.438;-2.006;2023-11-19T08:27:33;15.18;;;3.38;;
66667;SDS011;57205;51.438;-2.006;2023-11-19T08:29:58;14.57;;;3.03;;
66667;SDS011;57205;51.438;-2.006;2023-11-19T08:32:24;16.10;;;2.80;;
66667;SDS011;57205;51.438;-2.006;2023-11-19T08:34:50;11.27;;;3.05;;
66667;SDS011;57205;51.438;-2.006;2023-11-19T08:37:16;14.73;;;2.88;;
66667;SDS011;57205;51.438;-2.006;2023-11-19T08:39:45;15.77;;;3.50;;
66667;SDS011;57205;51.438;-2.006;2023-11-19T08:42:11;15.80;;;2.90;;
66667;SDS011;57205;51.438;-2.006;2023-11-19T08:44:37;14.75;;;2.95;;
66667;SDS011;57205;51.438;-2.006;2023-11-19T08:47:02;13.40;;;3.17;;
66667;SDS011;57205;51.438;-2.006;2023-11-19T08:49:29;13.10;;;3.17;;
66667;SDS011;57205;51.438;-2.006;2023-11-19T08:51:54;11.52;;;2.55;;
66667;SDS011;57205;51.438;-2.006;2023-11-19T08:54:20;13.20;;;2.70;;
66667;SDS011;57205;51.438;-2.006;2023-11-19T08:56:46;16.60;;;3.63;;
66667;SDS011;57205;51.438;-2.006;2023-11-19T08:59:12;13.68;;;3.40;;
66667;SDS011;57205;51.438;-2.006;2023-11-19T09:01:37;12.43;;;2.65;;
66667;SDS011;57205;51.438;-2.006;2023-11-19T09:04:03;13.32;;;2.65;;
66667;SDS011;57205;51.438;-2.006;2023-11-19T09:06:29;12.73;;;3.20;;
66667;SDS011;57205;51.438;-2.006;2023-11-19T09:08:55;19.50;;;3.25;;
66667;SDS011;57205;51.438;-2.006;2023-11-19T09:11:25;16.20;;;4.20;;
66667;SDS011;57205;51.438;-2.006;2023-11-19T09:13:51;9.43;;;2.63;;
66667;SDS011;57205;51.438;-2.006;2023-11-19T09:16:16;14.98;;;4.05;;
66667;SDS011;57205;51.438;-2.006;2023-11-19T09:18:42;15.27;;;3.40;;
66667;SDS011;57205;51.438;-2.006;2023-11-19T09:21:07;21.70;;;3.20;;
66667;SDS011;57205;51.438;-2.006;2023-11-19T09:23:32;17.05;;;2.78;;
66667;SDS011;57205;51.438;-2.006;2023-11-19T09:26:04;13.02;;;3.50;;
66667;SDS011;57205;51.438;-2.006;2023-11-19T09:28:30;14.68;;;2.75;;
66667;SDS011;57205;51.438;-2.006;2023-11-19T09:30:55;15.57;;;2.95;;
66667;SDS011;57205;51.438;-2.006;2023-11-19T09:33:21;16.17;;;4.35;;
66667;SDS011;57205;51.438;-2.006;2023-11-19T09:35:47;17.48;;;3.00;;
66667;SDS011;57205;51.438;-2.006;2023-11-19T09:38:14;14.07;;;3.10;;
66667;SDS011;57205;51.438;-2.006;2023-11-19T09:40:40;10.18;;;2.70;;
66667;SDS011;57205;51.438;-2.006;2023-11-19T09:43:06;13.57;;;3.78;;
66667;SDS011;57205;51.438;-2.006;2023-11-19T09:45:34;14.02;;;3.05;;
66667;SDS011;57205;51.438;-2.006;2023-11-19T09:48:13;12.10;;;2.80;;
66667;SDS011;57205;51.438;-2.006;2023-11-19T09:50:42;10.70;;;2.47;;
66667;SDS011;57205;51.438;-2.006;2023-11-19T09:53:07;14.05;;;4.00;;
66667;SDS011;57205;51.438;-2.006;2023-11-19T09:55:33;12.95;;;2.70;;
66667;SDS011;57205;51.438;-2.006;2023-11-19T09:57:59;13.85;;;2.50;;
66667;SDS011;57205;51.438;-2.006;2023-11-19T10:00:26;12.35;;;2.42;;
66667;SDS011;57205;51.438;-2.006;2023-11-19T10:02:52;14.10;;;2.78;;
66667;SDS011;57205;51.438;-2.006;2023-11-19T10:05:20;7.93;;;1.90;;
66667;SDS011;57205;51.438;-2.006;2023-11-19T10:07:47;10.80;;;2.75;;
66667;SDS011;57205;51.438;-2.006;2023-11-19T10:10:12;18.35;;;5.07;;
66667;SDS011;57205;51.438;-2.006;2023-11-19T10:12:43;11.45;;;2.90;;
66667;SDS011;57205;51.438;-2.006;2023-11-19T10:15:09;15.75;;;3.40;;
66667;SDS011;57205;51.438;-2.006;2023-11-19T10:17:44;12.02;;;2.90;;
66667;SDS011;57205;51.438;-2.006;2023-11-19T10:20:10;7.60;;;2.05;;
66667;SDS011;57205;51.438;-2.006;2023-11-19T10:22:39;8.95;;;2.60;;
66667;SDS011;57205;51.438;-2.006;2023-11-19T10:25:05;9.18;;;2.30;;
66667;SDS011;57205;51.438;-2.006;2023-11-19T10:27:47;8.27;;;2.00;;
66667;SDS011;57205;51.438;-2.006;2023-11-19T10:30:12;10.38;;;2.38;;
66667;SDS011;57205;51.438;-2.006;2023-11-19T10:32:38;7.78;;;2.08;;
66667;SDS011;57205;51.438;-2.006;2023-11-19T10:35:07;10.00;;;2.35;;
66667;SDS011;57205;51.438;-2.006;2023-11-19T10:37:32;10.88;;;1.90;;
66667;SDS011;57205;51.438;-2.006;2023-11-19T10:40:00;11.68;;;2.10;;
66667;SDS011;57205;51.438;-2.006;2023-11-19T10:42:25;11.00;;;2.50;;
66667;SDS011;57205;51.438;-2.006;2023-11-19T10:44:51;7.95;;;2.55;;
66667;SDS011;57205;51.438;-2.006;2023-11-19T10:47:18;10.85;;;2.20;;
66667;SDS011;57205;51.438;-2.006;2023-11-19T10:49:44;8.98;;;2.45;;
66667;SDS011;57205;51.438;-2.006;2023-11-19T10:52:17;8.20;;;1.75;;
66667;SDS011;57205;51.438;-2.006;2023-11-19T10:54:49;9.18;;;1.85;;
66667;SDS011;57205;51.438;-2.006;2023-11-19T10:57:19;12.25;;;2.28;;
66667;SDS011;57205;51.438;-2.006;2023-11-19T10:59:47;5.32;;;1.75;;
66667;SDS011;57205;51.438;-2.006;2023-11-19T11:02:15;9.38;;;2.20;;
66667;SDS011;57205;51.438;-2.006;2023-11-19T11:04:44;6.20;;;1.65;;
66667;SDS011;57205;51.438;-2.006;2023-11-19T11:07:12;5.72;;;1.65;;
66667;SDS011;57205;51.438;-2.006;2023-11-19T11:09:41;8.40;;;2.35;;
66667;SDS011;57205;51.438;-2.006;2023-11-19T11:12:06;10.88;;;4.03;;
66667;SDS011;57205;51.438;-2.006;2023-11-19T11:14:35;8.70;;;1.90;;
66667;SDS011;57205;51.438;-2.006;2023-11-19T11:17:05;7.43;;;1.50;;
66667;SDS011;57205;51.438;-2.006;2023-11-19T11:19:33;9.90;;;2.25;;
66667;SDS011;57205;51.438;-2.006;2023-11-19T11:21:59;6.78;;;2.65;;
66667;SDS011;57205;51.438;-2.006;2023-11-19T11:24:45;11.38;;;2.38;;
66667;SDS011;57205;51.438;-2.006;2023-11-19T11:30:07;6.78;;;1.45;;
66667;SDS011;57205;51.438;-2.006;2023-11-19T11:32:51;18.35;;;1.77;;
66667;SDS011;57205;51.438;-2.006;2023-11-19T11:35:53;6.25;;;1.85;;
66667;SDS011;57205;51.438;-2.006;2023-11-19T11:38:30;6.30;;;1.77;;
66667;SDS011;57205;51.438;-2.006;2023-11-19T11:41:16;8.57;;;1.65;;
66667;SDS011;57205;51.438;-2.006;2023-11-19T11:43:52;4.82;;;1.95;;
66667;SDS011;57205;51.438;-2.006;2023-11-19T11:49:04;6.05;;;1.40;;
66667;SDS011;57205;51.438;-2.006;2023-11-19T11:54:08;7.00;;;1.73;;
66667;SDS011;57205;51.438;-2.006;2023-11-19T11:56:36;7.55;;;1.67;;
66667;SDS011;57205;51.438;-2.006;2023-11-19T11:59:03;5.60;;;1.98;;
66667;SDS011;57205;51.438;-2.006;2023-11-19T12:01:32;8.50;;;2.42;;
66667;SDS011;57205;51.438;-2.006;2023-11-19T12:03:57;6.70;;;1.73;;
66667;SDS011;57205;51.438;-2.006;2023-11-19T12:06:23;6.05;;;1.70;;
66667;SDS011;57205;51.438;-2.006;2023-11-19T12:08:51;5.60;;;1.40;;
66667;SDS011;57205;51.438;-2.006;2023-11-19T12:11:16;6.67;;;1.60;;
66667;SDS011;57205;51.438;-2.006;2023-11-19T12:13:59;7.83;;;1.50;;
66667;SDS011;57205;51.438;-2.006;2023-11-19T12:16:27;8.25;;;1.90;;
66667;SDS011;57205;51.438;-2.006;2023-11-19T12:18:54;6.40;;;1.23;;
66667;SDS011;57205;51.438;-2.006;2023-11-19T12:21:27;8.13;;;1.63;;
66667;SDS011;57205;51.438;-2.006;2023-11-19T12:23:54;7.18;;;1.52;;
66667;SDS011;57205;51.438;-2.006;2023-11-19T12:26:34;6.53;;;1.45;;
66667;SDS011;57205;51.438;-2.006;2023-11-19T12:29:02;10.07;;;4.70;;
66667;SDS011;57205;51.438;-2.006;2023-11-19T12:31:29;4.35;;;1.08;;
66667;SDS011;57205;51.438;-2.006;2023-11-19T12:33:55;7.75;;;3.10;;
66667;SDS011;57205;51.438;-2.006;2023-11-19T12:36:21;5.20;;;1.33;;
66667;SDS011;57205;51.438;-2.006;2023-11-19T12:38:48;5.63;;;1.50;;
66667;SDS011;57205;51.438;-2.006;2023-11-19T12:41:14;3.03;;;1.00;;
66667;SDS011;57205;51.438;-2.006;2023-11-19T12:43:42;5.47;;;1.10;;
66667;SDS011;57205;51.438;-2.006;2023-11-19T12:46:21;4.35;;;0.90;;
66667;SDS011;57205;51.438;-2.006;2023-11-19T12:48:48;5.13;;;1.05;;
66667;SDS011;57205;51.438;-2.006;2023-11-19T12:51:14;2.95;;;0.75;;
66667;SDS011;57205;51.438;-2.006;2023-11-19T12:53:53;3.38;;;1.08;;
66667;SDS011;57205;51.438;-2.006;2023-11-19T12:56:23;7.05;;;1.17;;
66667;SDS011;57205;51.438;-2.006;2023-11-19T12:58:49;3.15;;;0.95;;
66667;SDS011;57205;51.438;-2.006;2023-11-19T13:01:19;6.95;;;1.00;;
66667;SDS011;57205;51.438;-2.006;2023-11-19T13:03:45;2.20;;;0.75;;
66667;SDS011;57205;51.438;-2.006;2023-11-19T13:06:12;3.88;;;1.25;;
66667;SDS011;57205;51.438;-2.006;2023-11-19T13:08:42;1.38;;;0.43;;
66667;SDS011;57205;51.438;-2.006;2023-11-19T13:11:13;1.65;;;0.60;;
66667;SDS011;57205;51.438;-2.006;2023-11-19T13:13:58;2.53;;;0.80;;
66667;SDS011;57205;51.438;-2.006;2023-11-19T13:16:25;3.00;;;0.80;;
66667;SDS011;57205;51.438;-2.006;2023-11-19T13:18:51;3.33;;;0.98;;
66667;SDS011;57205;51.438;-2.006;2023-11-19T13:21:17;5.93;;;1.23;;
66667;SDS011;57205;51.438;-2.006;2023-11-19T13:23:43;4.93;;;1.50;;
66667;SDS011;57205;51.438;-2.006;2023-11-19T13:26:09;5.47;;;1.35;;
66667;SDS011;57205;51.438;-2.006;2023-11-19T13:28:36;2.92;;;0.80;;
66667;SDS011;57205;51.438;-2.006;2023-11-19T13:31:02;1.83;;;0.65;;
66667;SDS011;57205;51.438;-2.006;2023-11-19T13:33:28;10.88;;;7.03;;
66667;SDS011;57205;51.438;-2.006;2023-11-19T13:35:54;3.13;;;1.08;;
66667;SDS011;57205;51.438;-2.006;2023-11-19T13:38:25;4.00;;;1.10;;
66667;SDS011;57205;51.438;-2.006;2023-11-19T13:40:51;4.55;;;1.25;;
66667;SDS011;57205;51.438;-2.006;2023-11-19T13:43:16;6.30;;;1.42;;
66667;SDS011;57205;51.438;-2.006;2023-11-19T13:45:42;2.35;;;1.13;;
66667;SDS011;57205;51.438;-2.006;2023-11-19T13:48:08;3.20;;;0.98;;
66667;SDS011;57205;51.438;-2.006;2023-11-19T13:50:34;4.28;;;1.15;;
66667;SDS011;57205;51.438;-2.006;2023-11-19T13:53:00;8.48;;;1.40;;
66667;SDS011;57205;51.438;-2.006;2023-11-19T13:55:26;4.68;;;1.50;;
66667;SDS011;57205;51.438;-2.006;2023-11-19T13:57:51;7.72;;;1.50;;
66667;SDS011;57205;51.438;-2.006;2023-11-19T14:00:17;6.50;;;1.13;;
66667;SDS011;57205;51.438;-2.006;2023-11-19T14:02:44;4.28;;;1.30;;
66667;SDS011;57205;51.438;-2.006;2023-11-19T14:05:12;5.03;;;1.55;;
66667;SDS011;57205;51.438;-2.006;2023-11-19T14:07:39;9.60;;;1.60;;
66667;SDS011;57205;51.438;-2.006;2023-11-19T14:10:11;7.53;;;1.95;;
66667;SDS011;57205;51.438;-2.006;2023-11-19T14:12:39;8.40;;;1.73;;
66667;SDS011;57205;51.438;-2.006;2023-11-19T14:15:08;8.65;;;1.75;;
66667;SDS011;57205;51.438;-2.006;2023-11-19T14:17:35;5.93;;;1.88;;
66667;SDS011;57205;51.438;-2.006;2023-11-19T14:20:01;9.75;;;1.75;;
66667;SDS011;57205;51.438;-2.006;2023-11-19T14:22:28;8.13;;;1.80;;
66667;SDS011;57205;51.438;-2.006;2023-11-19T14:24:55;9.98;;;1.88;;
66667;SDS011;57205;51.438;-2.006;2023-11-19T14:27:20;8.52;;;1.42;;
66667;SDS011;57205;51.438;-2.006;2023-11-19T14:29:48;8.15;;;1.75;;
66667;SDS011;57205;51.438;-2.006;2023-11-19T14:35:02;8.45;;;1.83;;
66667;SDS011;57205;51.438;-2.006;2023-11-19T14:37:28;6.75;;;1.75;;
66667;SDS011;57205;51.438;-2.006;2023-11-19T14:39:56;7.32;;;1.60;;